Terminal Aerodrome Forecast
Issued by NWS Jackson, KY

Home | Current Version | Previous Version | Text Only | Print | Product List | Glossary On
Versions: 1 2 3 4 5 6 7 8 9 10 11 12 13
000
FTUS43 KJKL 222343
TAFLOZ
TAF
KLOZ 222343Z 2300/2324 12006KT P6SM VCSH OVC050
     FM230300 19007KT 6SM BR VCSH OVC040 WS020/21040KT
     FM231000 16003KT 6SM BR VCSH OVC040
     FM231400 21006G15KT P6SM VCTS BKN035CB
     FM232100 20010G20KT 6SM SHRA VCTS OVC025CB=

USA.gov is the U.S. government's official web portal to all federal, state and local government web resources and services.